createdAt,value
2018-11-22T13:19:52.174Z,24.30
2018-11-22T13:20:52.300Z,28.10
2018-11-22T13:21:52.429Z,27.40
2018-11-22T13:22:52.571Z,26.80
2018-11-22T13:23:52.698Z,27.30
2018-11-22T13:24:52.872Z,26.40
2018-11-22T13:25:52.955Z,27.60
2018-11-22T13:26:53.103Z,29.00
2018-11-22T13:27:53.234Z,27.70
2018-11-22T13:28:53.362Z,28.40
2018-11-22T13:29:53.490Z,28.20
2018-11-22T13:30:53.619Z,27.10
2018-11-22T13:31:53.755Z,28.50
2018-11-22T13:32:53.888Z,28.50
2018-11-22T13:33:54.017Z,28.10
2018-11-22T13:34:54.151Z,28.50
2018-11-22T13:35:54.280Z,27.00
2018-11-22T13:36:54.413Z,27.40
2018-11-22T13:37:54.544Z,25.70
2018-11-22T13:38:54.681Z,26.90
2018-11-22T13:39:54.815Z,26.10
2018-11-22T13:40:54.950Z,26.80
2018-11-22T13:41:55.077Z,26.90
2018-11-22T13:42:55.207Z,26.50
2018-11-22T13:43:55.339Z,26.90
2018-11-22T13:44:55.479Z,26.30
2018-11-22T13:45:55.610Z,25.50
2018-11-22T13:46:55.742Z,27.60
2018-11-22T13:47:55.869Z,27.20
2018-11-22T13:48:56.073Z,27.60
2018-11-22T13:49:56.157Z,27.00
2018-11-22T13:50:56.283Z,26.90
2018-11-22T13:51:56.418Z,27.00
2018-11-22T13:52:56.611Z,27.80
2018-11-22T13:53:56.612Z,27.10
2018-11-22T13:54:56.744Z,28.60
2018-11-22T13:55:56.891Z,26.40
2018-11-22T13:56:57.005Z,28.00
2018-11-22T13:57:57.156Z,28.30
2018-11-22T13:58:57.330Z,27.30
2018-11-22T13:59:58.351Z,28.70
2018-11-22T14:00:57.554Z,27.50
2018-11-22T14:01:57.686Z,27.70
2018-11-22T14:02:57.820Z,28.10
2018-11-22T14:03:57.973Z,28.00
2018-11-22T14:04:58.098Z,28.40
2018-11-22T14:05:58.232Z,28.70
2018-11-22T14:06:58.364Z,27.80
2018-11-22T14:07:58.516Z,26.90
2018-11-22T14:08:58.642Z,27.30
2018-11-22T14:09:58.774Z,28.50
2018-11-22T14:10:58.903Z,28.60
2018-11-22T14:11:59.102Z,27.50
2018-11-22T14:12:59.348Z,27.70
2018-11-22T14:13:59.353Z,27.50
2018-11-22T14:14:59.486Z,27.40
2018-11-22T14:15:59.632Z,27.90
2018-11-22T14:16:59.764Z,28.50
2018-11-22T14:17:59.896Z,28.00
2018-11-22T14:19:00.042Z,28.00
2018-11-22T14:20:00.172Z,27.10
2018-11-22T14:21:00.298Z,28.20
2018-11-22T14:22:00.432Z,28.20
2018-11-22T14:23:00.563Z,28.00
2018-11-22T14:24:00.702Z,27.60
2018-11-22T14:25:00.851Z,27.60
2018-11-22T14:26:00.983Z,27.60
2018-11-22T14:27:01.170Z,27.40
2018-11-22T14:28:01.267Z,26.40
2018-11-22T14:29:02.665Z,26.70
2018-11-22T14:30:01.545Z,27.10
2018-11-22T14:31:01.674Z,27.60
2018-11-22T14:32:01.838Z,26.70
2018-11-22T14:33:02.403Z,26.70
2018-11-22T14:34:02.033Z,27.00
2018-11-22T14:35:02.168Z,26.40
2018-11-22T14:36:02.306Z,26.30
2018-11-22T14:37:02.435Z,27.10
2018-11-22T14:38:02.567Z,27.50
2018-11-22T14:39:02.705Z,26.70
2018-11-22T14:40:02.865Z,26.80
2018-11-22T14:41:02.989Z,27.30
2018-11-22T14:42:03.223Z,27.30
2018-11-22T14:43:03.232Z,26.70
2018-11-22T14:44:03.372Z,26.60
2018-11-22T14:45:03.500Z,27.30
2018-11-22T14:46:03.662Z,26.50
2018-11-22T14:47:03.791Z,25.90
2018-11-22T14:48:03.960Z,27.50
2018-11-22T14:49:04.085Z,27.30
2018-11-22T14:50:04.209Z,27.90
2018-11-22T14:51:04.833Z,26.00
2018-11-22T14:52:04.489Z,27.50
2018-11-22T14:53:04.607Z,26.30
2018-11-22T14:54:04.736Z,27.20
2018-11-22T14:55:04.869Z,27.40
2018-11-22T14:56:05.304Z,26.40
2018-11-22T14:57:05.130Z,28.20
2018-11-22T14:58:05.261Z,27.20
2018-11-22T14:59:05.382Z,27.80
2018-11-22T15:00:05.525Z,28.30
2018-11-22T15:01:07.291Z,28.20
2018-11-22T15:02:05.832Z,28.20
2018-11-22T15:03:05.970Z,27.00
2018-11-22T15:04:06.113Z,27.20
2018-11-22T15:05:06.246Z,27.90
2018-11-22T15:06:06.372Z,28.20
2018-11-22T15:07:06.503Z,28.50
2018-11-22T15:08:06.679Z,27.90
2018-11-22T15:09:06.897Z,26.30
2018-11-22T15:10:06.895Z,27.10
2018-11-22T15:11:07.029Z,27.70
2018-11-22T15:12:07.154Z,27.10
2018-11-22T15:13:07.537Z,27.80
2018-11-22T15:14:07.419Z,27.40
2018-11-22T15:15:07.545Z,27.80
2018-11-22T15:16:07.702Z,27.10
2018-11-22T15:17:07.863Z,26.80
2018-11-22T15:18:08.002Z,26.50
2018-11-22T15:19:08.139Z,27.20
2018-11-22T15:20:08.297Z,26.40
2018-11-22T15:21:08.423Z,26.20
2018-11-22T15:22:08.657Z,26.80
2018-11-22T15:23:08.619Z,27.50
2018-11-22T15:24:08.749Z,27.10
2018-11-22T15:25:08.875Z,28.20
2018-11-22T15:26:09.012Z,27.00
2018-11-22T15:27:09.141Z,27.80
2018-11-22T15:28:09.339Z,27.70
2018-11-22T15:29:09.343Z,27.40
2018-11-22T15:30:09.475Z,27.90
2018-11-22T15:31:09.603Z,27.20
2018-11-22T15:32:09.747Z,29.20
2018-11-22T15:33:16.165Z,29.00
2018-11-22T15:34:10.052Z,26.90
2018-11-22T15:35:10.193Z,28.80
2018-11-22T15:36:10.350Z,28.10
2018-11-22T15:37:10.478Z,28.80
2018-11-22T15:38:10.662Z,29.00
2018-11-22T15:39:10.796Z,29.30
2018-11-22T15:40:10.948Z,29.30
2018-11-22T15:41:11.076Z,29.90
2018-11-22T15:42:11.210Z,29.10
2018-11-22T15:43:11.344Z,30.30
2018-11-22T15:44:11.490Z,31.00
2018-11-22T15:45:11.613Z,31.20
2018-11-22T15:46:11.749Z,29.10
2018-11-22T15:47:11.874Z,31.80
2018-11-22T15:48:12.010Z,30.50
2018-11-22T15:49:17.200Z,30.40
2018-11-22T15:50:12.223Z,29.60
2018-11-22T15:51:12.354Z,29.80
2018-11-22T15:52:12.504Z,28.70
2018-11-22T15:53:48.405Z,28.80
2018-11-22T15:54:12.787Z,27.60
2018-11-22T15:55:12.915Z,27.20
2018-11-22T15:56:13.049Z,28.50
2018-11-22T15:57:13.857Z,27.30
2018-11-22T15:58:13.258Z,28.60
2018-11-22T15:59:13.385Z,29.60
2018-11-22T16:00:13.512Z,27.90
2018-11-22T16:01:13.650Z,28.10
2018-11-22T16:02:13.781Z,26.50
2018-11-22T16:03:13.908Z,28.30
2018-11-22T16:04:14.039Z,26.70
2018-11-22T16:05:14.173Z,28.70
2018-11-22T16:06:14.302Z,28.80
2018-11-22T16:07:14.452Z,28.30
2018-11-22T16:08:14.582Z,32.40
2018-11-22T16:09:14.718Z,30.70
2018-11-22T16:10:14.848Z,31.50
2018-11-22T16:11:15.139Z,30.10
2018-11-22T16:12:15.110Z,29.30
2018-11-22T16:13:15.238Z,28.10
2018-11-22T16:14:15.432Z,28.20
2018-11-22T16:15:15.453Z,28.30
2018-11-22T16:16:15.576Z,27.10
2018-11-22T16:17:15.706Z,27.10
2018-11-22T16:18:15.842Z,25.70
2018-11-22T16:19:15.970Z,26.90
2018-11-22T16:20:16.105Z,26.80
2018-11-22T16:21:16.231Z,27.50
2018-11-22T16:22:16.367Z,25.90
2018-11-22T16:23:16.496Z,27.70
2018-11-22T16:24:16.619Z,25.90
2018-11-22T16:25:16.751Z,26.50
2018-11-22T16:26:16.883Z,26.80
2018-11-22T16:27:17.007Z,26.80
2018-11-22T16:28:17.169Z,27.80
2018-11-22T16:29:17.295Z,27.40
2018-11-22T16:30:17.424Z,27.40
2018-11-22T16:31:17.601Z,27.20
2018-11-22T16:32:17.738Z,27.40
2018-11-22T16:33:17.869Z,28.40
2018-11-22T16:34:18.029Z,27.70
2018-11-22T16:35:18.209Z,29.40
2018-11-22T16:36:18.216Z,30.40
2018-11-22T16:37:18.346Z,31.60
2018-11-22T16:38:18.482Z,30.00
2018-11-22T16:39:18.609Z,29.80
2018-11-22T16:40:18.744Z,29.60
2018-11-22T16:41:18.886Z,28.70
2018-11-22T16:42:19.039Z,27.70
2018-11-22T16:43:19.176Z,27.60
2018-11-22T16:44:19.308Z,27.40
2018-11-22T16:45:19.438Z,26.90
2018-11-22T16:46:19.579Z,27.70
2018-11-22T16:47:30.238Z,27.30
2018-11-22T16:48:19.869Z,26.70
2018-11-22T16:49:20.000Z,27.50
2018-11-22T16:50:20.138Z,29.40
2018-11-22T16:51:20.265Z,28.50
2018-11-22T16:52:20.397Z,29.30
2018-11-22T16:53:20.554Z,27.90
2018-11-22T16:54:20.691Z,29.00
2018-11-22T16:55:20.823Z,27.80
2018-11-22T16:56:20.955Z,27.90
2018-11-22T16:57:21.134Z,28.00
2018-11-22T16:58:21.600Z,28.80
2018-11-22T16:59:21.358Z,27.50
2018-11-22T17:00:21.502Z,29.50
2018-11-22T17:01:24.019Z,29.60
2018-11-22T17:02:21.776Z,30.20
2018-11-22T17:03:21.918Z,29.90
2018-11-22T17:04:22.038Z,30.40
2018-11-22T17:05:22.182Z,29.70
2018-11-22T17:06:22.329Z,29.60
2018-11-22T17:07:22.445Z,29.20
2018-11-22T17:08:22.573Z,28.90
2018-11-22T17:09:22.763Z,28.30
2018-11-22T17:11:54.957Z,29.30
2018-11-22T17:12:55.085Z,28.00
2018-11-22T17:13:55.212Z,28.90
2018-11-22T17:14:55.338Z,28.00
2018-11-22T17:15:55.469Z,28.20
2018-11-22T17:16:55.602Z,29.50
2018-11-22T17:17:55.729Z,29.70
2018-11-22T17:18:55.885Z,29.80
2018-11-22T17:19:56.085Z,29.80
2018-11-22T17:20:56.086Z,30.60
2018-11-22T17:21:56.215Z,29.60
2018-11-22T17:22:56.372Z,31.80
2018-11-22T17:23:56.495Z,31.50
2018-11-22T17:24:56.632Z,31.40
2018-11-22T17:25:56.762Z,30.90
2018-11-22T17:26:56.914Z,31.30
2018-11-22T17:27:57.059Z,33.30
2018-11-22T17:28:57.200Z,32.70
2018-11-22T17:29:57.322Z,32.20
2018-11-22T17:30:57.441Z,31.20
2018-11-22T17:31:58.124Z,30.90
2018-11-22T17:32:57.642Z,30.40
2018-11-22T17:33:57.788Z,30.40
2018-11-22T17:34:57.898Z,30.70
2018-11-22T17:35:58.026Z,31.50
2018-11-22T17:36:58.159Z,32.40
2018-11-22T17:37:58.296Z,30.20
2018-11-22T17:38:58.428Z,29.20
2018-11-22T17:39:58.559Z,29.20
2018-11-22T17:40:58.683Z,29.80
2018-11-22T17:41:58.823Z,29.80
2018-11-22T17:42:58.946Z,27.80
2018-11-22T17:43:59.078Z,29.40
2018-11-22T17:44:59.202Z,28.80
2018-11-22T17:46:00.110Z,29.40
2018-11-22T17:46:59.517Z,28.10
2018-11-22T17:48:00.606Z,27.20
2018-11-22T17:48:59.861Z,29.50
2018-11-22T17:49:59.864Z,28.40
2018-11-22T17:50:59.993Z,29.10
2018-11-22T17:52:00.123Z,30.20
2018-11-22T17:53:00.263Z,28.20
2018-11-22T17:54:00.417Z,30.60
2018-11-22T17:55:00.546Z,29.70
2018-11-22T17:56:00.676Z,30.40
2018-11-22T17:57:00.798Z,31.70
2018-11-22T17:58:00.938Z,32.10
2018-11-22T17:59:01.066Z,32.30
2018-11-22T18:00:01.190Z,31.90
2018-11-22T18:01:01.316Z,32.90
2018-11-22T18:02:01.490Z,31.80
2018-11-22T18:03:08.378Z,30.10
2018-11-22T18:04:01.759Z,32.10
2018-11-22T18:05:01.898Z,30.10
2018-11-22T18:06:02.046Z,30.10
2018-11-22T18:07:02.168Z,29.80
2018-11-22T18:08:02.302Z,31.60
2018-11-22T18:09:02.458Z,30.80
2018-11-22T18:10:02.591Z,34.10
2018-11-22T18:11:02.713Z,30.90
2018-11-22T18:12:02.837Z,30.80
2018-11-22T18:13:02.998Z,32.00
2018-11-22T18:14:13.915Z,31.10
2018-11-22T18:15:03.294Z,32.20
2018-11-22T18:16:03.438Z,31.40
2018-11-22T18:17:03.599Z,32.60
2018-11-22T18:18:20.029Z,32.30
2018-11-22T18:19:03.905Z,33.30
2018-11-22T18:20:04.048Z,34.30
2018-11-22T18:21:04.189Z,32.50
2018-11-22T18:23:16.221Z,35.30
2018-11-22T18:24:16.359Z,34.80
2018-11-22T18:25:16.484Z,34.70
2018-11-22T18:26:16.635Z,34.00
2018-11-22T18:27:16.758Z,33.80
2018-11-22T18:28:16.887Z,35.50
2018-11-22T18:29:17.031Z,35.50
2018-11-22T18:30:17.172Z,33.80
2018-11-22T18:31:38.304Z,34.70
2018-11-22T18:32:17.434Z,36.00
2018-11-22T18:33:17.569Z,34.50
2018-11-22T18:34:17.694Z,36.70
2018-11-22T18:35:17.823Z,35.60
2018-11-22T18:36:17.951Z,35.60
2018-11-22T18:37:18.096Z,36.50
2018-11-22T18:38:18.221Z,36.60
2018-11-22T18:39:18.353Z,37.40
2018-11-22T18:40:18.478Z,37.30
2018-11-22T18:41:18.606Z,36.90
2018-11-22T18:42:18.731Z,36.80
2018-11-22T18:43:18.862Z,34.70
2018-11-22T18:44:18.989Z,35.00
2018-11-22T18:45:19.118Z,34.90
2018-11-22T18:46:19.247Z,33.90
2018-11-22T18:47:19.877Z,34.60
2018-11-22T18:48:19.542Z,33.20
2018-11-22T18:49:19.678Z,34.20
2018-11-22T18:50:19.831Z,34.40
2018-11-22T18:51:19.958Z,32.90
2018-11-22T18:52:20.091Z,32.80
2018-11-22T18:53:20.217Z,33.20
2018-11-22T18:54:20.347Z,32.70
2018-11-22T18:55:20.505Z,33.70
2018-11-22T18:56:20.643Z,32.60
2018-11-22T18:57:20.770Z,32.90
2018-11-22T18:58:20.933Z,32.40
2018-11-22T18:59:21.068Z,33.50
2018-11-22T19:00:21.192Z,32.70
2018-11-22T19:01:21.318Z,32.30
2018-11-22T19:02:21.452Z,33.00
2018-11-22T19:03:21.576Z,31.80
2018-11-22T19:04:21.706Z,31.30
2018-11-22T19:05:21.842Z,32.30
2018-11-22T19:06:21.978Z,32.70
2018-11-22T19:07:22.121Z,34.00
2018-11-22T19:08:22.250Z,35.00
2018-11-22T19:09:22.390Z,33.40
2018-11-22T19:10:22.518Z,35.80
2018-11-22T19:11:22.650Z,34.90
2018-11-22T19:12:22.774Z,35.10
2018-11-22T19:13:22.903Z,34.00
2018-11-22T19:14:23.032Z,33.00
2018-11-22T19:15:23.161Z,35.20
2018-11-22T19:16:23.293Z,34.30
2018-11-22T19:17:23.445Z,33.20
2018-11-22T19:18:23.584Z,33.90
2018-11-22T19:19:23.730Z,34.10
2018-11-22T19:20:23.878Z,34.00
2018-11-22T19:21:24.006Z,33.20
2018-11-22T19:22:24.152Z,33.20
2018-11-22T19:23:24.280Z,32.60
2018-11-22T19:24:24.411Z,32.60
2018-11-22T19:25:24.540Z,33.20
2018-11-22T19:26:24.672Z,33.20
2018-11-22T19:27:24.801Z,33.70
2018-11-22T19:28:24.935Z,32.80
2018-11-22T19:29:25.073Z,33.40
2018-11-22T19:30:25.200Z,33.50
2018-11-22T19:31:25.341Z,34.10
2018-11-22T19:32:25.474Z,35.00
2018-11-22T19:33:25.604Z,35.20
2018-11-22T19:34:25.735Z,34.20
2018-11-22T19:35:25.862Z,35.40
2018-11-22T19:36:26.018Z,35.20
2018-11-22T19:37:26.156Z,33.90
2018-11-22T19:38:26.288Z,35.30
2018-11-22T19:39:26.423Z,35.60
2018-11-22T19:40:26.558Z,35.60
2018-11-22T19:41:26.692Z,35.90
2018-11-22T19:42:26.855Z,35.00
2018-11-22T19:43:26.982Z,36.10
2018-11-22T19:44:27.114Z,38.40
2018-11-22T19:45:27.309Z,40.90
2018-11-22T19:46:27.338Z,65.10
2018-11-22T19:47:27.464Z,45.10
2018-11-22T19:48:27.623Z,36.60
2018-11-22T19:49:27.746Z,33.60
2018-11-22T19:50:27.869Z,34.60
2018-11-22T19:51:28.001Z,36.40
2018-11-22T19:52:28.175Z,36.80
2018-11-22T19:53:28.264Z,36.50
2018-11-22T19:54:28.388Z,36.50
2018-11-22T19:55:28.518Z,36.10
2018-11-22T19:56:28.651Z,37.60
2018-11-22T19:57:28.778Z,36.60
2018-11-22T19:58:28.919Z,35.20
2018-11-22T19:59:29.036Z,34.60
2018-11-22T20:00:29.171Z,36.90
2018-11-22T20:01:29.311Z,34.60
2018-11-22T20:02:29.512Z,34.40
2018-11-22T20:03:29.514Z,33.50
2018-11-22T20:04:29.648Z,34.00
2018-11-22T20:05:29.849Z,35.00
2018-11-22T20:06:29.910Z,32.30
2018-11-22T20:07:30.036Z,35.50
2018-11-22T20:08:30.164Z,35.50
2018-11-22T20:09:30.294Z,34.80
2018-11-22T20:10:30.628Z,33.90
2018-11-22T20:11:30.549Z,34.70
2018-11-22T20:12:30.689Z,35.70
2018-11-22T20:13:30.818Z,36.00
2018-11-22T20:14:30.953Z,35.60
2018-11-22T20:15:31.072Z,36.20
2018-11-22T20:16:31.201Z,35.50
2018-11-22T20:17:31.331Z,36.20
2018-11-22T20:18:31.461Z,35.40
2018-11-22T20:19:32.437Z,34.40
2018-11-22T20:20:31.721Z,34.80
2018-11-22T20:21:31.849Z,34.90
2018-11-22T20:22:31.995Z,35.00
2018-11-22T20:23:32.124Z,36.80
2018-11-22T20:24:32.250Z,35.40
2018-11-22T20:25:32.393Z,37.40
2018-11-22T20:26:32.519Z,36.60
2018-11-22T20:27:32.652Z,35.30
2018-11-22T20:28:32.822Z,35.60
2018-11-22T20:29:32.950Z,36.70
2018-11-22T20:30:33.079Z,34.90
2018-11-22T20:31:33.205Z,35.00
2018-11-22T20:32:38.839Z,36.60
2018-11-22T20:33:33.484Z,36.10
2018-11-22T20:34:33.609Z,36.20
2018-11-22T20:35:33.741Z,34.30
2018-11-22T20:36:33.888Z,33.50
2018-11-22T20:37:34.014Z,32.90
2018-11-22T20:38:34.139Z,32.70
2018-11-22T20:39:34.302Z,33.90
2018-11-22T20:40:34.423Z,33.10
2018-11-22T20:41:34.559Z,32.80
2018-11-22T20:42:34.771Z,33.00
2018-11-22T20:43:34.863Z,30.10
2018-11-22T20:44:34.988Z,30.00
2018-11-22T20:45:40.679Z,30.30
2018-11-22T20:46:35.258Z,31.10
2018-11-22T20:47:35.388Z,32.40
2018-11-22T20:48:35.520Z,34.10
2018-11-22T20:49:35.651Z,32.00
2018-11-22T20:50:35.778Z,32.80
2018-11-22T20:51:35.908Z,33.20
2018-11-22T20:52:36.039Z,33.70
2018-11-22T20:53:36.168Z,32.80
2018-11-22T20:54:36.294Z,34.20
2018-11-22T20:55:36.421Z,37.00
2018-11-22T20:56:36.560Z,35.80
2018-11-22T20:57:36.683Z,46.20
2018-11-22T20:58:36.824Z,37.20
2018-11-22T20:59:36.970Z,35.90
2018-11-22T21:00:37.096Z,35.10
2018-11-22T21:01:37.224Z,34.20
2018-11-22T21:02:37.347Z,34.30
2018-11-22T21:03:37.502Z,32.80
2018-11-22T21:04:37.627Z,32.50
2018-11-22T21:05:38.639Z,32.30
2018-11-22T21:06:37.912Z,33.20
2018-11-22T21:07:38.061Z,33.30
2018-11-22T21:08:38.186Z,32.80
2018-11-22T21:09:38.317Z,33.40
2018-11-22T21:10:38.441Z,34.60
2018-11-22T21:11:43.420Z,33.50
2018-11-22T21:12:38.704Z,33.00
2018-11-22T21:13:38.831Z,30.20
2018-11-22T21:14:38.967Z,30.90
2018-11-22T21:15:39.095Z,29.80
2018-11-22T21:16:39.227Z,29.20
2018-11-22T21:17:39.355Z,28.60
2018-11-22T21:18:39.511Z,27.40
2018-11-22T21:19:39.656Z,27.60
2018-11-22T21:20:39.782Z,26.20
2018-11-22T21:21:39.906Z,31.70
2018-11-22T21:22:40.064Z,26.70
2018-11-22T21:23:40.190Z,27.90
2018-11-22T21:24:40.314Z,27.50
2018-11-22T21:25:40.441Z,27.40
2018-11-22T21:26:40.607Z,27.60
2018-11-22T21:27:40.770Z,27.80
2018-11-22T21:28:40.885Z,28.20
2018-11-22T21:29:40.889Z,27.20
2018-11-22T21:30:41.047Z,26.90
2018-11-22T21:31:41.178Z,28.30
2018-11-22T21:32:41.342Z,28.60
2018-11-22T21:33:41.477Z,28.00
2018-11-22T21:34:41.603Z,28.00
2018-11-22T21:35:41.730Z,26.70
2018-11-22T21:36:41.853Z,26.90
2018-11-22T21:37:41.978Z,27.20
2018-11-22T21:38:42.107Z,26.80
2018-11-22T21:39:42.238Z,25.50
2018-11-22T21:40:42.368Z,26.80
2018-11-22T21:41:42.496Z,28.40
2018-11-22T21:42:42.623Z,27.60
2018-11-22T21:43:42.750Z,28.40
2018-11-22T21:44:42.877Z,28.30
2018-11-22T21:45:43.075Z,28.70
2018-11-22T21:46:43.124Z,29.70
2018-11-22T21:47:43.255Z,30.10
2018-11-22T21:48:43.383Z,30.40
2018-11-22T21:49:43.513Z,29.90
2018-11-22T21:50:43.642Z,30.40
2018-11-22T21:51:43.775Z,30.10
2018-11-22T21:52:43.903Z,30.70
2018-11-22T21:53:44.030Z,31.10
2018-11-22T21:54:44.167Z,30.30
2018-11-22T21:55:44.288Z,29.50
2018-11-22T21:56:44.425Z,29.10
2018-11-22T21:57:44.552Z,30.00
2018-11-22T21:58:44.676Z,30.30
2018-11-22T21:59:44.806Z,30.10
2018-11-22T22:00:44.970Z,28.90
2018-11-22T22:01:45.095Z,28.30
2018-11-22T22:02:45.953Z,28.30
2018-11-22T22:03:45.357Z,29.20
2018-11-22T22:04:45.502Z,28.80
2018-11-22T22:05:56.582Z,28.30
2018-11-22T22:06:45.706Z,29.10
2018-11-22T22:07:45.831Z,27.30
2018-11-22T22:08:45.993Z,28.30
2018-11-22T22:09:46.112Z,29.10
2018-11-22T22:10:46.239Z,28.50
2018-11-22T22:11:46.369Z,27.50
2018-11-22T22:12:46.509Z,28.00
2018-11-22T22:13:46.634Z,28.10
2018-11-22T22:14:46.766Z,27.70
2018-11-22T22:15:46.890Z,27.30
2018-11-22T22:16:47.045Z,28.50
2018-11-22T22:17:47.158Z,27.00
2018-11-22T22:18:47.289Z,26.80
2018-11-22T22:19:47.415Z,27.40
2018-11-22T22:20:47.541Z,26.90
2018-11-22T22:21:47.676Z,28.40
2018-11-22T22:22:47.837Z,27.60
2018-11-22T22:23:47.968Z,27.20
2018-11-22T22:24:48.098Z,27.60
2018-11-22T22:25:48.247Z,28.30
2018-11-22T22:26:48.398Z,28.40
2018-11-22T22:27:48.523Z,27.70
2018-11-22T22:28:48.655Z,28.00
2018-11-22T22:29:48.776Z,28.60
2018-11-22T22:30:48.911Z,27.70
2018-11-22T22:31:49.045Z,29.30
2018-11-22T22:32:49.179Z,27.70
2018-11-22T22:33:49.307Z,29.30
2018-11-22T22:34:49.437Z,27.90
2018-11-22T22:35:49.564Z,29.00
2018-11-22T22:36:49.695Z,28.60
2018-11-22T22:37:49.833Z,29.20
2018-11-22T22:38:49.956Z,28.70
2018-11-22T22:39:50.087Z,30.80
2018-11-22T22:40:50.260Z,29.20
2018-11-22T22:41:50.346Z,29.10
2018-11-22T22:42:50.477Z,27.30
2018-11-22T22:43:50.604Z,28.60
2018-11-22T22:44:50.735Z,27.80
2018-11-22T22:45:50.854Z,29.50
2018-11-22T22:46:50.995Z,32.60
2018-11-22T22:47:51.125Z,28.00
2018-11-22T22:48:51.251Z,29.20
2018-11-22T22:49:51.381Z,28.10
2018-11-22T22:50:51.504Z,26.50
2018-11-22T22:51:51.636Z,27.20
2018-11-22T22:52:51.763Z,28.30
2018-11-22T22:53:51.893Z,28.20
2018-11-22T22:54:52.030Z,27.80
2018-11-22T22:55:52.156Z,27.20
2018-11-22T22:56:52.285Z,30.10
2018-11-22T22:57:52.416Z,27.60
2018-11-22T22:58:52.542Z,29.60
2018-11-22T22:59:52.669Z,28.30
2018-11-22T23:00:52.805Z,29.40
2018-11-22T23:01:52.940Z,29.00
2018-11-22T23:02:53.065Z,29.30
2018-11-22T23:03:53.201Z,28.40
2018-11-22T23:04:53.326Z,31.00
2018-11-22T23:05:53.463Z,29.10
2018-11-22T23:06:53.586Z,30.70
2018-11-22T23:07:53.717Z,31.00
2018-11-22T23:08:53.843Z,28.80
2018-11-22T23:09:53.978Z,30.70
2018-11-22T23:10:54.104Z,29.10
2018-11-22T23:11:54.299Z,30.90
2018-11-22T23:12:55.146Z,28.10
2018-11-22T23:13:54.497Z,30.70
2018-11-22T23:14:54.660Z,31.30
2018-11-22T23:15:54.750Z,29.10
2018-11-22T23:16:54.876Z,30.70
2018-11-22T23:17:55.026Z,31.40
2018-11-22T23:18:55.197Z,29.70
2018-11-22T23:19:55.333Z,27.70
2018-11-22T23:20:55.457Z,29.60
2018-11-22T23:21:55.640Z,29.30
2018-11-22T23:22:55.760Z,28.70
2018-11-22T23:23:55.886Z,28.30
2018-11-22T23:24:56.018Z,30.40
2018-11-22T23:25:56.166Z,29.50
2018-11-22T23:26:56.318Z,29.50
2018-11-22T23:27:56.484Z,29.10
2018-11-22T23:28:56.615Z,32.10
2018-11-22T23:29:56.741Z,33.90
2018-11-22T23:30:56.893Z,36.10
2018-11-22T23:31:57.021Z,34.90
2018-11-22T23:32:57.153Z,37.10
2018-11-22T23:33:57.282Z,36.50
2018-11-22T23:34:57.422Z,34.40
2018-11-22T23:35:57.548Z,33.50
2018-11-22T23:36:57.672Z,31.90
2018-11-22T23:37:57.803Z,33.60
2018-11-22T23:38:57.968Z,33.60
2018-11-22T23:39:58.083Z,33.80
2018-11-22T23:40:58.207Z,32.50
2018-11-22T23:41:58.335Z,29.10
2018-11-22T23:42:58.520Z,29.80
2018-11-22T23:43:58.624Z,30.20
2018-11-22T23:44:58.752Z,34.10
2018-11-22T23:45:58.882Z,32.40
2018-11-22T23:46:59.017Z,31.70
2018-11-22T23:47:59.137Z,32.90
2018-11-22T23:48:59.271Z,30.60
2018-11-22T23:49:59.394Z,30.90
2018-11-22T23:50:59.552Z,31.60
2018-11-22T23:51:59.675Z,35.40
2018-11-22T23:52:59.804Z,33.60
2018-11-22T23:53:59.931Z,35.60
2018-11-22T23:55:00.137Z,50.50
2018-11-22T23:56:00.137Z,63.60
2018-11-22T23:57:00.271Z,55.20
2018-11-22T23:58:00.397Z,57.20
2018-11-22T23:59:00.520Z,40.20
